sensor_id;sensor_type;location;lat;lon;timestamp;P1;durP1;ratioP1;P2;durP2;ratioP2
9934;SDS011;5006;41.828;23.478;2023-03-20T00:01:08;2.05;;;1.40;;
9934;SDS011;5006;41.828;23.478;2023-03-20T00:02:16;3.88;;;1.42;;
9934;SDS011;5006;41.828;23.478;2023-03-20T00:03:24;3.25;;;1.60;;
9934;SDS011;5006;41.828;23.478;2023-03-20T00:04:31;2.78;;;1.40;;
9934;SDS011;5006;41.828;23.478;2023-03-20T00:05:36;1.08;;;0.98;;
9934;SDS011;5006;41.828;23.478;2023-03-20T00:06:42;3.22;;;1.33;;
9934;SDS011;5006;41.828;23.478;2023-03-20T00:07:47;1.83;;;1.30;;
9934;SDS011;5006;41.828;23.478;2023-03-20T00:08:53;3.40;;;1.55;;
9934;SDS011;5006;41.828;23.478;2023-03-20T00:10:01;2.25;;;1.33;;
9934;SDS011;5006;41.828;23.478;2023-03-20T00:11:09;1.30;;;1.20;;
9934;SDS011;5006;41.828;23.478;2023-03-20T00:12:25;2.38;;;1.23;;
9934;SDS011;5006;41.828;23.478;2023-03-20T00:13:31;1.50;;;1.40;;
9934;SDS011;5006;41.828;23.478;2023-03-20T00:14:36;3.25;;;1.25;;
9934;SDS011;5006;41.828;23.478;2023-03-20T00:15:42;1.30;;;1.02;;
9934;SDS011;5006;41.828;23.478;2023-03-20T00:16:49;1.92;;;1.13;;
9934;SDS011;5006;41.828;23.478;2023-03-20T00:17:55;1.30;;;1.20;;
9934;SDS011;5006;41.828;23.478;2023-03-20T00:19:00;1.88;;;1.20;;
9934;SDS011;5006;41.828;23.478;2023-03-20T00:20:08;1.55;;;1.10;;
9934;SDS011;5006;41.828;23.478;2023-03-20T00:21:18;1.75;;;1.10;;
9934;SDS011;5006;41.828;23.478;2023-03-20T00:22:23;1.30;;;0.98;;
9934;SDS011;5006;41.828;23.478;2023-03-20T00:23:28;2.38;;;1.17;;
9934;SDS011;5006;41.828;23.478;2023-03-20T00:24:33;2.67;;;1.17;;
9934;SDS011;5006;41.828;23.478;2023-03-20T00:25:40;1.55;;;1.33;;
9934;SDS011;5006;41.828;23.478;2023-03-20T00:26:48;2.90;;;1.10;;
9934;SDS011;5006;41.828;23.478;2023-03-20T00:27:54;2.15;;;1.15;;
9934;SDS011;5006;41.828;23.478;2023-03-20T00:29:00;1.85;;;1.35;;
9934;SDS011;5006;41.828;23.478;2023-03-20T00:30:12;2.25;;;1.30;;
9934;SDS011;5006;41.828;23.478;2023-03-20T00:31:24;2.53;;;1.20;;
9934;SDS011;5006;41.828;23.478;2023-03-20T00:32:30;1.60;;;1.10;;
9934;SDS011;5006;41.828;23.478;2023-03-20T00:33:36;2.65;;;1.30;;
9934;SDS011;5006;41.828;23.478;2023-03-20T00:34:41;2.15;;;1.30;;
9934;SDS011;5006;41.828;23.478;2023-03-20T00:35:47;1.75;;;1.20;;
9934;SDS011;5006;41.828;23.478;2023-03-20T00:36:52;1.80;;;1.40;;
9934;SDS011;5006;41.828;23.478;2023-03-20T00:37:59;2.03;;;1.33;;
9934;SDS011;5006;41.828;23.478;2023-03-20T00:39:04;2.30;;;1.38;;
9934;SDS011;5006;41.828;23.478;2023-03-20T00:40:10;3.30;;;1.33;;
9934;SDS011;5006;41.828;23.478;2023-03-20T00:41:21;1.52;;;1.20;;
9934;SDS011;5006;41.828;23.478;2023-03-20T00:42:28;6.15;;;1.60;;
9934;SDS011;5006;41.828;23.478;2023-03-20T00:43:33;1.90;;;1.30;;
9934;SDS011;5006;41.828;23.478;2023-03-20T00:44:47;2.00;;;1.30;;
9934;SDS011;5006;41.828;23.478;2023-03-20T00:45:53;2.13;;;1.45;;
9934;SDS011;5006;41.828;23.478;2023-03-20T00:46:59;1.50;;;1.00;;
9934;SDS011;5006;41.828;23.478;2023-03-20T00:48:07;1.50;;;1.20;;
9934;SDS011;5006;41.828;23.478;2023-03-20T00:49:17;1.75;;;1.30;;
9934;SDS011;5006;41.828;23.478;2023-03-20T00:50:24;1.67;;;1.13;;
9934;SDS011;5006;41.828;23.478;2023-03-20T00:51:32;3.15;;;1.35;;
9934;SDS011;5006;41.828;23.478;2023-03-20T00:52:37;2.00;;;1.30;;
9934;SDS011;5006;41.828;23.478;2023-03-20T00:53:42;2.20;;;1.23;;
9934;SDS011;5006;41.828;23.478;2023-03-20T00:54:47;1.90;;;1.45;;
9934;SDS011;5006;41.828;23.478;2023-03-20T00:55:52;1.90;;;1.20;;
9934;SDS011;5006;41.828;23.478;2023-03-20T00:56:59;1.48;;;1.30;;
9934;SDS011;5006;41.828;23.478;2023-03-20T00:58:08;1.60;;;1.25;;
9934;SDS011;5006;41.828;23.478;2023-03-20T00:59:16;1.85;;;1.20;;
9934;SDS011;5006;41.828;23.478;2023-03-20T01:00:25;1.40;;;1.13;;
9934;SDS011;5006;41.828;23.478;2023-03-20T01:01:39;2.80;;;1.00;;
9934;SDS011;5006;41.828;23.478;2023-03-20T01:02:44;1.85;;;1.25;;
9934;SDS011;5006;41.828;23.478;2023-03-20T01:03:50;1.23;;;1.00;;
9934;SDS011;5006;41.828;23.478;2023-03-20T01:04:55;1.80;;;1.13;;
9934;SDS011;5006;41.828;23.478;2023-03-20T01:06:03;2.38;;;1.30;;
9934;SDS011;5006;41.828;23.478;2023-03-20T01:07:09;2.00;;;1.42;;
9934;SDS011;5006;41.828;23.478;2023-03-20T01:08:18;1.73;;;1.35;;
9934;SDS011;5006;41.828;23.478;2023-03-20T01:09:26;1.40;;;1.10;;
9934;SDS011;5006;41.828;23.478;2023-03-20T01:10:31;3.90;;;1.45;;
9934;SDS011;5006;41.828;23.478;2023-03-20T01:11:37;1.85;;;1.30;;
9934;SDS011;5006;41.828;23.478;2023-03-20T01:12:45;3.33;;;1.30;;
9934;SDS011;5006;41.828;23.478;2023-03-20T01:13:51;2.33;;;1.27;;
9934;SDS011;5006;41.828;23.478;2023-03-20T01:14:56;2.67;;;1.30;;
9934;SDS011;5006;41.828;23.478;2023-03-20T01:16:03;3.50;;;1.20;;
9934;SDS011;5006;41.828;23.478;2023-03-20T01:17:08;1.55;;;1.20;;
9934;SDS011;5006;41.828;23.478;2023-03-20T01:18:21;1.50;;;1.20;;
9934;SDS011;5006;41.828;23.478;2023-03-20T01:19:28;2.42;;;1.40;;
9934;SDS011;5006;41.828;23.478;2023-03-20T01:20:33;2.92;;;1.33;;
9934;SDS011;5006;41.828;23.478;2023-03-20T01:21:39;1.67;;;1.13;;
9934;SDS011;5006;41.828;23.478;2023-03-20T01:22:44;1.67;;;1.30;;
9934;SDS011;5006;41.828;23.478;2023-03-20T01:23:50;2.72;;;1.20;;
9934;SDS011;5006;41.828;23.478;2023-03-20T01:24:55;1.75;;;1.30;;
9934;SDS011;5006;41.828;23.478;2023-03-20T01:26:01;1.60;;;1.40;;
9934;SDS011;5006;41.828;23.478;2023-03-20T01:27:09;1.67;;;1.23;;
9934;SDS011;5006;41.828;23.478;2023-03-20T01:28:20;1.65;;;1.10;;
9934;SDS011;5006;41.828;23.478;2023-03-20T01:29:27;1.33;;;1.23;;
9934;SDS011;5006;41.828;23.478;2023-03-20T01:30:32;1.50;;;1.20;;
9934;SDS011;5006;41.828;23.478;2023-03-20T01:31:38;1.70;;;1.15;;
9934;SDS011;5006;41.828;23.478;2023-03-20T01:32:42;1.25;;;1.15;;
9934;SDS011;5006;41.828;23.478;2023-03-20T01:33:50;1.20;;;1.10;;
9934;SDS011;5006;41.828;23.478;2023-03-20T01:34:56;1.45;;;1.35;;
9934;SDS011;5006;41.828;23.478;2023-03-20T01:36:02;3.30;;;1.38;;
9934;SDS011;5006;41.828;23.478;2023-03-20T01:37:08;1.70;;;1.17;;
9934;SDS011;5006;41.828;23.478;2023-03-20T01:38:18;2.50;;;1.52;;
9934;SDS011;5006;41.828;23.478;2023-03-20T01:39:26;2.78;;;1.35;;
9934;SDS011;5006;41.828;23.478;2023-03-20T01:40:36;1.80;;;1.25;;
9934;SDS011;5006;41.828;23.478;2023-03-20T01:41:53;1.30;;;1.20;;
9934;SDS011;5006;41.828;23.478;2023-03-20T01:43:00;1.60;;;1.02;;
9934;SDS011;5006;41.828;23.478;2023-03-20T01:44:15;2.50;;;1.27;;
9934;SDS011;5006;41.828;23.478;2023-03-20T01:45:25;2.13;;;1.25;;
9934;SDS011;5006;41.828;23.478;2023-03-20T01:46:38;1.52;;;1.10;;
9934;SDS011;5006;41.828;23.478;2023-03-20T01:47:53;2.22;;;1.10;;
9934;SDS011;5006;41.828;23.478;2023-03-20T01:49:00;1.23;;;1.13;;
9934;SDS011;5006;41.828;23.478;2023-03-20T01:50:25;1.33;;;1.20;;
9934;SDS011;5006;41.828;23.478;2023-03-20T01:51:37;1.83;;;1.00;;
9934;SDS011;5006;41.828;23.478;2023-03-20T01:52:48;1.90;;;1.15;;
9934;SDS011;5006;41.828;23.478;2023-03-20T01:53:56;2.85;;;1.10;;
9934;SDS011;5006;41.828;23.478;2023-03-20T01:55:04;1.10;;;1.00;;
9934;SDS011;5006;41.828;23.478;2023-03-20T01:56:09;1.95;;;1.27;;
9934;SDS011;5006;41.828;23.478;2023-03-20T01:57:23;1.75;;;1.30;;
9934;SDS011;5006;41.828;23.478;2023-03-20T01:58:30;1.98;;;1.23;;
9934;SDS011;5006;41.828;23.478;2023-03-20T01:59:42;1.95;;;1.30;;
9934;SDS011;5006;41.828;23.478;2023-03-20T02:00:50;2.05;;;1.40;;
9934;SDS011;5006;41.828;23.478;2023-03-20T02:01:57;1.88;;;1.40;;
9934;SDS011;5006;41.828;23.478;2023-03-20T02:03:03;1.40;;;1.30;;
9934;SDS011;5006;41.828;23.478;2023-03-20T02:04:41;1.10;;;1.00;;
9934;SDS011;5006;41.828;23.478;2023-03-20T02:05:51;1.40;;;1.00;;
9934;SDS011;5006;41.828;23.478;2023-03-20T02:06:59;1.70;;;1.27;;
9934;SDS011;5006;41.828;23.478;2023-03-20T02:08:21;3.50;;;1.35;;
9934;SDS011;5006;41.828;23.478;2023-03-20T02:09:30;1.80;;;1.20;;
9934;SDS011;5006;41.828;23.478;2023-03-20T02:10:36;2.08;;;1.20;;
9934;SDS011;5006;41.828;23.478;2023-03-20T02:11:54;1.73;;;1.33;;
9934;SDS011;5006;41.828;23.478;2023-03-20T02:13:00;1.88;;;1.42;;
9934;SDS011;5006;41.828;23.478;2023-03-20T02:14:19;2.15;;;1.20;;
9934;SDS011;5006;41.828;23.478;2023-03-20T02:15:33;2.15;;;1.40;;
9934;SDS011;5006;41.828;23.478;2023-03-20T02:16:51;3.65;;;1.20;;
9934;SDS011;5006;41.828;23.478;2023-03-20T02:18:03;2.13;;;1.25;;
9934;SDS011;5006;41.828;23.478;2023-03-20T02:19:11;2.88;;;1.30;;
9934;SDS011;5006;41.828;23.478;2023-03-20T02:20:30;1.42;;;1.20;;
9934;SDS011;5006;41.828;23.478;2023-03-20T02:21:50;1.63;;;1.10;;
9934;SDS011;5006;41.828;23.478;2023-03-20T02:23:25;2.28;;;1.30;;
9934;SDS011;5006;41.828;23.478;2023-03-20T02:25:01;1.30;;;1.20;;
9934;SDS011;5006;41.828;23.478;2023-03-20T02:26:30;2.08;;;1.35;;
9934;SDS011;5006;41.828;23.478;2023-03-20T02:27:51;3.20;;;1.17;;
9934;SDS011;5006;41.828;23.478;2023-03-20T02:29:44;1.90;;;1.20;;
9934;SDS011;5006;41.828;23.478;2023-03-20T02:31:23;2.92;;;1.30;;
9934;SDS011;5006;41.828;23.478;2023-03-20T02:32:46;1.77;;;1.27;;
9934;SDS011;5006;41.828;23.478;2023-03-20T02:34:37;1.38;;;1.00;;
9934;SDS011;5006;41.828;23.478;2023-03-20T02:37:52;1.40;;;1.13;;
9934;SDS011;5006;41.828;23.478;2023-03-20T02:40:48;1.48;;;1.00;;
9934;SDS011;5006;41.828;23.478;2023-03-20T02:41:59;2.05;;;0.95;;
9934;SDS011;5006;41.828;23.478;2023-03-20T02:43:16;1.15;;;1.00;;
9934;SDS011;5006;41.828;23.478;2023-03-20T02:44:28;1.50;;;1.00;;
9934;SDS011;5006;41.828;23.478;2023-03-20T02:45:45;1.73;;;0.90;;
9934;SDS011;5006;41.828;23.478;2023-03-20T02:46:58;1.27;;;1.00;;
9934;SDS011;5006;41.828;23.478;2023-03-20T02:48:09;0.95;;;0.85;;
9934;SDS011;5006;41.828;23.478;2023-03-20T02:49:22;1.10;;;1.00;;
9934;SDS011;5006;41.828;23.478;2023-03-20T02:50:43;1.30;;;1.00;;
9934;SDS011;5006;41.828;23.478;2023-03-20T02:51:55;1.77;;;0.90;;
9934;SDS011;5006;41.828;23.478;2023-03-20T02:53:08;1.20;;;0.90;;
9934;SDS011;5006;41.828;23.478;2023-03-20T02:54:23;1.17;;;1.00;;
9934;SDS011;5006;41.828;23.478;2023-03-20T02:55:34;1.88;;;0.90;;
9934;SDS011;5006;41.828;23.478;2023-03-20T02:56:48;1.20;;;1.10;;
9934;SDS011;5006;41.828;23.478;2023-03-20T02:58:02;2.80;;;1.20;;
9934;SDS011;5006;41.828;23.478;2023-03-20T02:59:19;1.23;;;0.90;;
9934;SDS011;5006;41.828;23.478;2023-03-20T03:00:31;1.25;;;1.05;;
9934;SDS011;5006;41.828;23.478;2023-03-20T03:01:40;1.20;;;0.95;;
9934;SDS011;5006;41.828;23.478;2023-03-20T03:02:50;1.88;;;1.00;;
9934;SDS011;5006;41.828;23.478;2023-03-20T03:04:03;2.05;;;1.02;;
9934;SDS011;5006;41.828;23.478;2023-03-20T03:05:12;1.08;;;0.93;;
9934;SDS011;5006;41.828;23.478;2023-03-20T03:06:23;1.20;;;1.00;;
9934;SDS011;5006;41.828;23.478;2023-03-20T03:07:32;1.00;;;0.90;;
9934;SDS011;5006;41.828;23.478;2023-03-20T03:08:43;1.10;;;1.00;;
9934;SDS011;5006;41.828;23.478;2023-03-20T03:09:54;1.63;;;1.08;;
9934;SDS011;5006;41.828;23.478;2023-03-20T03:11:05;1.30;;;1.00;;
9934;SDS011;5006;41.828;23.478;2023-03-20T03:12:13;1.08;;;0.90;;
9934;SDS011;5006;41.828;23.478;2023-03-20T03:13:23;2.38;;;1.00;;
9934;SDS011;5006;41.828;23.478;2023-03-20T03:14:34;1.33;;;0.82;;
9934;SDS011;5006;41.828;23.478;2023-03-20T03:15:48;1.00;;;0.90;;
9934;SDS011;5006;41.828;23.478;2023-03-20T03:16:57;1.58;;;0.90;;
9934;SDS011;5006;41.828;23.478;2023-03-20T03:18:06;1.10;;;0.90;;
9934;SDS011;5006;41.828;23.478;2023-03-20T03:19:18;1.25;;;0.82;;
9934;SDS011;5006;41.828;23.478;2023-03-20T03:20:28;0.93;;;0.80;;
9934;SDS011;5006;41.828;23.478;2023-03-20T03:21:36;1.02;;;0.70;;
9934;SDS011;5006;41.828;23.478;2023-03-20T03:22:44;0.90;;;0.80;;
9934;SDS011;5006;41.828;23.478;2023-03-20T03:23:51;1.10;;;1.00;;
9934;SDS011;5006;41.828;23.478;2023-03-20T03:24:56;1.25;;;0.82;;
9934;SDS011;5006;41.828;23.478;2023-03-20T03:26:01;1.95;;;1.00;;
9934;SDS011;5006;41.828;23.478;2023-03-20T03:27:12;1.52;;;0.93;;
9934;SDS011;5006;41.828;23.478;2023-03-20T03:28:23;0.77;;;0.68;;
9934;SDS011;5006;41.828;23.478;2023-03-20T03:29:34;2.00;;;1.10;;
9934;SDS011;5006;41.828;23.478;2023-03-20T03:30:42;1.05;;;0.90;;
9934;SDS011;5006;41.828;23.478;2023-03-20T03:31:49;2.08;;;0.85;;
9934;SDS011;5006;41.828;23.478;2023-03-20T03:33:00;1.10;;;1.00;;
9934;SDS011;5006;41.828;23.478;2023-03-20T03:34:16;1.63;;;0.90;;
9934;SDS011;5006;41.828;23.478;2023-03-20T03:35:22;0.93;;;0.80;;
9934;SDS011;5006;41.828;23.478;2023-03-20T03:36:32;1.05;;;0.95;;
9934;SDS011;5006;41.828;23.478;2023-03-20T03:37:45;1.10;;;1.00;;
9934;SDS011;5006;41.828;23.478;2023-03-20T03:38:59;1.30;;;0.80;;
9934;SDS011;5006;41.828;23.478;2023-03-20T03:40:13;0.73;;;0.70;;
9934;SDS011;5006;41.828;23.478;2023-03-20T03:41:24;1.25;;;0.80;;
9934;SDS011;5006;41.828;23.478;2023-03-20T03:42:36;2.78;;;0.90;;
9934;SDS011;5006;41.828;23.478;2023-03-20T03:43:44;1.30;;;1.00;;
9934;SDS011;5006;41.828;23.478;2023-03-20T03:44:57;1.08;;;1.00;;
9934;SDS011;5006;41.828;23.478;2023-03-20T03:46:08;1.25;;;1.02;;
9934;SDS011;5006;41.828;23.478;2023-03-20T03:47:18;2.38;;;1.00;;
9934;SDS011;5006;41.828;23.478;2023-03-20T03:48:27;1.27;;;0.80;;
9934;SDS011;5006;41.828;23.478;2023-03-20T03:49:38;1.63;;;1.10;;
9934;SDS011;5006;41.828;23.478;2023-03-20T03:50:47;1.45;;;1.00;;
9934;SDS011;5006;41.828;23.478;2023-03-20T03:51:59;1.77;;;1.00;;
9934;SDS011;5006;41.828;23.478;2023-03-20T03:53:09;0.98;;;0.90;;
9934;SDS011;5006;41.828;23.478;2023-03-20T03:54:18;1.15;;;0.90;;
9934;SDS011;5006;41.828;23.478;2023-03-20T03:55:48;1.27;;;1.00;;
9934;SDS011;5006;41.828;23.478;2023-03-20T03:56:57;5.07;;;1.13;;
9934;SDS011;5006;41.828;23.478;2023-03-20T03:58:05;1.27;;;1.10;;
9934;SDS011;5006;41.828;23.478;2023-03-20T03:59:17;1.42;;;1.30;;
9934;SDS011;5006;41.828;23.478;2023-03-20T04:00:27;2.15;;;1.00;;
9934;SDS011;5006;41.828;23.478;2023-03-20T04:01:32;1.27;;;1.10;;
9934;SDS011;5006;41.828;23.478;2023-03-20T04:02:40;2.10;;;1.05;;
9934;SDS011;5006;41.828;23.478;2023-03-20T04:03:48;1.67;;;1.48;;
9934;SDS011;5006;41.828;23.478;2023-03-20T04:04:56;1.50;;;1.30;;
9934;SDS011;5006;41.828;23.478;2023-03-20T04:06:05;1.40;;;1.30;;
9934;SDS011;5006;41.828;23.478;2023-03-20T04:07:13;2.65;;;1.40;;
9934;SDS011;5006;41.828;23.478;2023-03-20T04:08:19;2.22;;;1.48;;
9934;SDS011;5006;41.828;23.478;2023-03-20T04:09:26;3.35;;;1.30;;
9934;SDS011;5006;41.828;23.478;2023-03-20T04:10:32;2.40;;;1.60;;
9934;SDS011;5006;41.828;23.478;2023-03-20T04:11:37;1.73;;;1.23;;
9934;SDS011;5006;41.828;23.478;2023-03-20T04:12:43;2.45;;;1.15;;
9934;SDS011;5006;41.828;23.478;2023-03-20T04:13:49;1.40;;;1.15;;
9934;SDS011;5006;41.828;23.478;2023-03-20T04:14:57;2.42;;;1.40;;
9934;SDS011;5006;41.828;23.478;2023-03-20T04:16:03;1.30;;;1.20;;
9934;SDS011;5006;41.828;23.478;2023-03-20T04:17:10;2.30;;;1.40;;
9934;SDS011;5006;41.828;23.478;2023-03-20T04:18:15;2.25;;;1.20;;
9934;SDS011;5006;41.828;23.478;2023-03-20T04:19:23;1.90;;;1.40;;
9934;SDS011;5006;41.828;23.478;2023-03-20T04:20:27;1.92;;;1.30;;
9934;SDS011;5006;41.828;23.478;2023-03-20T04:21:33;2.38;;;1.70;;
9934;SDS011;5006;41.828;23.478;2023-03-20T04:22:38;2.58;;;1.27;;
9934;SDS011;5006;41.828;23.478;2023-03-20T04:23:48;4.50;;;1.50;;
9934;SDS011;5006;41.828;23.478;2023-03-20T04:24:54;2.80;;;1.30;;
9934;SDS011;5006;41.828;23.478;2023-03-20T04:26:04;1.52;;;1.30;;
9934;SDS011;5006;41.828;23.478;2023-03-20T04:27:11;1.77;;;1.55;;
9934;SDS011;5006;41.828;23.478;2023-03-20T04:28:17;2.92;;;2.08;;
9934;SDS011;5006;41.828;23.478;2023-03-20T04:29:42;2.67;;;2.30;;
9934;SDS011;5006;41.828;23.478;2023-03-20T04:31:07;2.53;;;2.22;;
9934;SDS011;5006;41.828;23.478;2023-03-20T04:32:51;2.53;;;2.33;;
9934;SDS011;5006;41.828;23.478;2023-03-20T04:34:04;2.85;;;1.90;;
9934;SDS011;5006;41.828;23.478;2023-03-20T04:35:32;2.00;;;1.30;;
9934;SDS011;5006;41.828;23.478;2023-03-20T04:36:42;1.85;;;1.30;;
9934;SDS011;5006;41.828;23.478;2023-03-20T04:37:50;2.65;;;1.42;;
9934;SDS011;5006;41.828;23.478;2023-03-20T04:38:56;1.73;;;1.30;;
9934;SDS011;5006;41.828;23.478;2023-03-20T04:40:04;4.13;;;1.45;;
9934;SDS011;5006;41.828;23.478;2023-03-20T04:41:09;1.80;;;1.40;;
9934;SDS011;5006;41.828;23.478;2023-03-20T04:42:16;1.23;;;1.13;;
9934;SDS011;5006;41.828;23.478;2023-03-20T04:43:21;2.95;;;1.30;;
9934;SDS011;5006;41.828;23.478;2023-03-20T04:44:28;2.97;;;1.30;;
9934;SDS011;5006;41.828;23.478;2023-03-20T04:45:33;2.80;;;1.52;;
9934;SDS011;5006;41.828;23.478;2023-03-20T04:46:39;1.42;;;1.15;;
9934;SDS011;5006;41.828;23.478;2023-03-20T04:47:51;1.90;;;1.10;;
9934;SDS011;5006;41.828;23.478;2023-03-20T04:48:59;1.35;;;1.00;;
9934;SDS011;5006;41.828;23.478;2023-03-20T04:50:07;1.10;;;1.00;;
9934;SDS011;5006;41.828;23.478;2023-03-20T04:51:13;1.77;;;1.20;;
9934;SDS011;5006;41.828;23.478;2023-03-20T04:52:23;1.70;;;1.23;;
9934;SDS011;5006;41.828;23.478;2023-03-20T04:53:29;1.35;;;1.00;;
9934;SDS011;5006;41.828;23.478;2023-03-20T04:54:34;1.88;;;1.40;;
9934;SDS011;5006;41.828;23.478;2023-03-20T04:55:41;2.35;;;1.08;;
9934;SDS011;5006;41.828;23.478;2023-03-20T04:56:48;1.67;;;1.30;;
9934;SDS011;5006;41.828;23.478;2023-03-20T04:57:56;1.33;;;1.10;;
9934;SDS011;5006;41.828;23.478;2023-03-20T04:59:01;1.17;;;1.08;;
9934;SDS011;5006;41.828;23.478;2023-03-20T05:00:08;1.23;;;1.13;;
9934;SDS011;5006;41.828;23.478;2023-03-20T05:01:14;2.58;;;1.38;;
9934;SDS011;5006;41.828;23.478;2023-03-20T05:02:20;1.27;;;1.08;;
9934;SDS011;5006;41.828;23.478;2023-03-20T05:03:25;1.45;;;1.27;;
9934;SDS011;5006;41.828;23.478;2023-03-20T05:04:31;2.50;;;1.20;;
9934;SDS011;5006;41.828;23.478;2023-03-20T05:05:35;1.40;;;1.15;;
9934;SDS011;5006;41.828;23.478;2023-03-20T05:06:42;2.38;;;1.30;;
9934;SDS011;5006;41.828;23.478;2023-03-20T05:07:47;1.52;;;1.23;;
9934;SDS011;5006;41.828;23.478;2023-03-20T05:09:00;1.33;;;1.10;;
9934;SDS011;5006;41.828;23.478;2023-03-20T05:10:07;1.45;;;1.15;;
9934;SDS011;5006;41.828;23.478;2023-03-20T05:11:33;1.58;;;1.20;;
9934;SDS011;5006;41.828;23.478;2023-03-20T05:12:42;2.70;;;1.30;;
9934;SDS011;5006;41.828;23.478;2023-03-20T05:13:49;1.77;;;1.30;;
9934;SDS011;5006;41.828;23.478;2023-03-20T05:15:11;1.98;;;1.60;;
9934;SDS011;5006;41.828;23.478;2023-03-20T05:16:36;2.55;;;1.27;;
9934;SDS011;5006;41.828;23.478;2023-03-20T05:17:56;1.70;;;1.55;;
9934;SDS011;5006;41.828;23.478;2023-03-20T05:19:24;2.13;;;1.55;;
9934;SDS011;5006;41.828;23.478;2023-03-20T05:20:30;2.58;;;1.60;;
9934;SDS011;5006;41.828;23.478;2023-03-20T05:21:42;1.45;;;1.10;;
9934;SDS011;5006;41.828;23.478;2023-03-20T05:22:57;2.40;;;1.92;;
9934;SDS011;5006;41.828;23.478;2023-03-20T05:24:17;3.05;;;2.30;;
9934;SDS011;5006;41.828;23.478;2023-03-20T05:25:33;2.63;;;2.08;;
9934;SDS011;5006;41.828;23.478;2023-03-20T05:27:04;2.25;;;1.83;;
9934;SDS011;5006;41.828;23.478;2023-03-20T05:28:36;1.30;;;1.20;;
9934;SDS011;5006;41.828;23.478;2023-03-20T05:30:12;1.42;;;1.00;;
9934;SDS011;5006;41.828;23.478;2023-03-20T05:31:38;2.58;;;1.40;;
9934;SDS011;5006;41.828;23.478;2023-03-20T05:33:18;2.60;;;1.35;;
9934;SDS011;5006;41.828;23.478;2023-03-20T05:34:52;1.42;;;1.30;;
9934;SDS011;5006;41.828;23.478;2023-03-20T05:36:06;1.25;;;0.90;;
9934;SDS011;5006;41.828;23.478;2023-03-20T05:37:31;3.28;;;1.70;;
9934;SDS011;5006;41.828;23.478;2023-03-20T05:39:03;3.47;;;1.85;;
9934;SDS011;5006;41.828;23.478;2023-03-20T05:40:40;2.70;;;1.63;;
9934;SDS011;5006;41.828;23.478;2023-03-20T05:41:55;2.35;;;1.85;;
9934;SDS011;5006;41.828;23.478;2023-03-20T05:43:26;2.50;;;1.95;;
9934;SDS011;5006;41.828;23.478;2023-03-20T05:44:51;2.50;;;2.30;;
9934;SDS011;5006;41.828;23.478;2023-03-20T05:46:19;3.85;;;2.22;;
9934;SDS011;5006;41.828;23.478;2023-03-20T05:47:49;7.55;;;2.20;;
9934;SDS011;5006;41.828;23.478;2023-03-20T05:49:11;3.22;;;2.50;;
9934;SDS011;5006;41.828;23.478;2023-03-20T05:50:48;4.03;;;2.20;;
9934;SDS011;5006;41.828;23.478;2023-03-20T05:52:11;5.15;;;2.40;;
9934;SDS011;5006;41.828;23.478;2023-03-20T05:53:43;4.13;;;2.80;;
9934;SDS011;5006;41.828;23.478;2023-03-20T05:55:00;6.50;;;3.10;;
9934;SDS011;5006;41.828;23.478;2023-03-20T05:56:24;4.75;;;3.67;;
9934;SDS011;5006;41.828;23.478;2023-03-20T05:57:48;5.72;;;4.03;;
9934;SDS011;5006;41.828;23.478;2023-03-20T05:59:06;8.07;;;4.35;;
9934;SDS011;5006;41.828;23.478;2023-03-20T06:00:22;7.25;;;4.70;;
9934;SDS011;5006;41.828;23.478;2023-03-20T06:01:47;11.73;;;4.50;;
9934;SDS011;5006;41.828;23.478;2023-03-20T06:03:02;6.43;;;3.80;;
9934;SDS011;5006;41.828;23.478;2023-03-20T06:04:36;5.65;;;3.65;;
9934;SDS011;5006;41.828;23.478;2023-03-20T06:05:56;6.90;;;3.35;;
9934;SDS011;5006;41.828;23.478;2023-03-20T06:07:01;5.18;;;3.60;;
9934;SDS011;5006;41.828;23.478;2023-03-20T06:08:07;4.70;;;3.33;;
9934;SDS011;5006;41.828;23.478;2023-03-20T06:09:13;4.97;;;4.00;;
9934;SDS011;5006;41.828;23.478;2023-03-20T06:10:19;9.02;;;4.60;;
9934;SDS011;5006;41.828;23.478;2023-03-20T06:11:26;6.63;;;3.95;;
9934;SDS011;5006;41.828;23.478;2023-03-20T06:12:31;7.68;;;4.85;;
9934;SDS011;5006;41.828;23.478;2023-03-20T06:13:38;8.15;;;4.95;;
9934;SDS011;5006;41.828;23.478;2023-03-20T06:14:44;8.05;;;5.55;;
9934;SDS011;5006;41.828;23.478;2023-03-20T06:15:50;8.80;;;6.38;;
9934;SDS011;5006;41.828;23.478;2023-03-20T06:16:56;8.00;;;6.68;;
9934;SDS011;5006;41.828;23.478;2023-03-20T06:18:02;9.13;;;6.75;;
9934;SDS011;5006;41.828;23.478;2023-03-20T06:19:09;8.18;;;6.90;;
9934;SDS011;5006;41.828;23.478;2023-03-20T06:20:14;8.38;;;7.47;;
9934;SDS011;5006;41.828;23.478;2023-03-20T06:21:20;7.85;;;6.68;;
9934;SDS011;5006;41.828;23.478;2023-03-20T06:22:25;9.05;;;7.80;;
9934;SDS011;5006;41.828;23.478;2023-03-20T06:23:31;10.40;;;7.82;;
9934;SDS011;5006;41.828;23.478;2023-03-20T06:24:39;8.38;;;6.65;;
9934;SDS011;5006;41.828;23.478;2023-03-20T06:25:45;8.38;;;6.53;;
9934;SDS011;5006;41.828;23.478;2023-03-20T06:26:51;9.30;;;7.38;;
9934;SDS011;5006;41.828;23.478;2023-03-20T06:27:56;11.35;;;8.30;;
9934;SDS011;5006;41.828;23.478;2023-03-20T06:29:02;8.60;;;7.65;;
9934;SDS011;5006;41.828;23.478;2023-03-20T06:30:11;9.18;;;8.07;;
9934;SDS011;5006;41.828;23.478;2023-03-20T06:31:18;12.93;;;7.00;;
9934;SDS011;5006;41.828;23.478;2023-03-20T06:32:23;8.13;;;7.00;;
9934;SDS011;5006;41.828;23.478;2023-03-20T06:33:30;8.80;;;7.90;;
9934;SDS011;5006;41.828;23.478;2023-03-20T06:34:37;9.82;;;8.00;;
9934;SDS011;5006;41.828;23.478;2023-03-20T06:35:44;8.07;;;7.28;;
9934;SDS011;5006;41.828;23.478;2023-03-20T06:36:49;8.10;;;7.22;;
9934;SDS011;5006;41.828;23.478;2023-03-20T06:37:58;9.38;;;6.70;;
9934;SDS011;5006;41.828;23.478;2023-03-20T06:39:04;9.23;;;7.35;;
9934;SDS011;5006;41.828;23.478;2023-03-20T06:40:11;10.95;;;8.52;;
9934;SDS011;5006;41.828;23.478;2023-03-20T06:41:16;9.52;;;8.13;;
9934;SDS011;5006;41.828;23.478;2023-03-20T06:42:22;9.05;;;7.78;;
9934;SDS011;5006;41.828;23.478;2023-03-20T06:43:27;9.48;;;7.13;;
9934;SDS011;5006;41.828;23.478;2023-03-20T06:44:33;8.57;;;7.65;;
9934;SDS011;5006;41.828;23.478;2023-03-20T06:45:40;8.63;;;7.53;;
9934;SDS011;5006;41.828;23.478;2023-03-20T06:46:54;11.60;;;8.00;;
9934;SDS011;5006;41.828;23.478;2023-03-20T06:48:00;9.93;;;8.60;;
9934;SDS011;5006;41.828;23.478;2023-03-20T06:49:05;9.00;;;7.72;;
9934;SDS011;5006;41.828;23.478;2023-03-20T06:50:11;11.80;;;8.88;;
9934;SDS011;5006;41.828;23.478;2023-03-20T06:51:18;10.05;;;8.73;;
9934;SDS011;5006;41.828;23.478;2023-03-20T06:52:29;8.50;;;7.03;;
9934;SDS011;5006;41.828;23.478;2023-03-20T06:53:55;12.55;;;8.02;;
9934;SDS011;5006;41.828;23.478;2023-03-20T06:55:04;9.73;;;7.85;;
9934;SDS011;5006;41.828;23.478;2023-03-20T06:56:10;9.65;;;7.78;;
9934;SDS011;5006;41.828;23.478;2023-03-20T06:57:18;10.60;;;7.32;;
9934;SDS011;5006;41.828;23.478;2023-03-20T06:58:23;14.18;;;8.90;;
9934;SDS011;5006;41.828;23.478;2023-03-20T06:59:29;10.73;;;8.25;;
9934;SDS011;5006;41.828;23.478;2023-03-20T07:00:35;10.27;;;8.82;;
9934;SDS011;5006;41.828;23.478;2023-03-20T07:01:45;14.05;;;11.80;;
9934;SDS011;5006;41.828;23.478;2023-03-20T07:02:50;15.63;;;13.30;;
9934;SDS011;5006;41.828;23.478;2023-03-20T07:03:56;13.68;;;11.60;;
9934;SDS011;5006;41.828;23.478;2023-03-20T07:05:06;12.93;;;10.57;;
9934;SDS011;5006;41.828;23.478;2023-03-20T07:06:13;12.07;;;10.57;;
9934;SDS011;5006;41.828;23.478;2023-03-20T07:07:19;10.98;;;9.30;;
9934;SDS011;5006;41.828;23.478;2023-03-20T07:08:25;11.13;;;9.93;;
9934;SDS011;5006;41.828;23.478;2023-03-20T07:09:30;16.05;;;13.23;;
9934;SDS011;5006;41.828;23.478;2023-03-20T07:10:36;17.58;;;15.65;;
9934;SDS011;5006;41.828;23.478;2023-03-20T07:11:41;18.48;;;14.55;;
9934;SDS011;5006;41.828;23.478;2023-03-20T07:12:47;17.88;;;13.23;;
9934;SDS011;5006;41.828;23.478;2023-03-20T07:13:53;15.40;;;12.07;;
9934;SDS011;5006;41.828;23.478;2023-03-20T07:15:09;12.60;;;9.38;;
9934;SDS011;5006;41.828;23.478;2023-03-20T07:16:16;11.13;;;9.40;;
9934;SDS011;5006;41.828;23.478;2023-03-20T07:17:22;15.63;;;11.70;;
9934;SDS011;5006;41.828;23.478;2023-03-20T07:18:28;13.20;;;10.10;;